createdAt,value
2019-03-30T00:00:18.023Z,99336.77
2019-03-30T00:02:28.888Z,99335.76
2019-03-30T00:04:39.838Z,99334.47
2019-03-30T00:06:50.784Z,99334.49
2019-03-30T00:09:01.966Z,99338.34
2019-03-30T00:11:12.893Z,99336.94
2019-03-30T00:13:23.879Z,99329.41
2019-03-30T00:15:34.712Z,99330.46
2019-03-30T00:17:45.552Z,99329.62
2019-03-30T00:19:56.407Z,99326.72
2019-03-30T00:22:07.348Z,99328.41
2019-03-30T00:24:18.226Z,99324.45
2019-03-30T00:26:29.068Z,99328.72
2019-03-30T00:28:39.898Z,99323.08
2019-03-30T00:30:50.797Z,99331.73
2019-03-30T00:33:01.698Z,99322.77
2019-03-30T00:35:12.560Z,99319.74
2019-03-30T00:37:23.391Z,99324.45
2019-03-30T00:39:34.257Z,99323.59
2019-03-30T00:41:45.095Z,99323.67
2019-03-30T00:43:55.938Z,99319.93
2019-03-30T00:46:06.789Z,99318.14
2019-03-30T00:48:17.637Z,99323.37
2019-03-30T00:50:28.607Z,99319.24
2019-03-30T00:52:39.446Z,99317.11
2019-03-30T00:54:50.295Z,99319.31
2019-03-30T00:57:01.274Z,99320.23
2019-03-30T00:59:12.222Z,99314.38
2019-03-30T01:01:23.117Z,99312.23
2019-03-30T01:03:33.944Z,99314.81
2019-03-30T01:05:44.917Z,99318.18
2019-03-30T01:07:55.752Z,99318.18
2019-03-30T01:10:06.715Z,99314.76
2019-03-30T01:12:17.559Z,99313.59
2019-03-30T01:14:28.395Z,99309.35
2019-03-30T01:16:39.321Z,99312.92
2019-03-30T01:18:50.163Z,99304.39
2019-03-30T01:21:01.134Z,99302.97
2019-03-30T01:23:11.986Z,99315.43
2019-03-30T01:25:22.827Z,99304.77
2019-03-30T01:27:33.682Z,99302.03
2019-03-30T01:29:44.629Z,99300.42
2019-03-30T01:31:55.607Z,99300.76
2019-03-30T01:34:06.440Z,99303.35
2019-03-30T01:36:17.289Z,99308.68
2019-03-30T01:38:28.166Z,99306.38
2019-03-30T01:40:39.006Z,99305.06
2019-03-30T01:42:49.860Z,99302.09
2019-03-30T01:45:00.815Z,99306.86
2019-03-30T01:47:11.669Z,99302.28
2019-03-30T01:49:22.506Z,99299.70
2019-03-30T01:51:33.342Z,99298.86
2019-03-30T01:53:44.213Z,99302.30
2019-03-30T01:55:55.042Z,99296.31
2019-03-30T01:58:05.892Z,99300.56
2019-03-30T02:00:16.929Z,99299.19
2019-03-30T02:02:27.801Z,99290.84
2019-03-30T02:04:38.668Z,99294.30
2019-03-30T02:06:49.534Z,99299.95
2019-03-30T02:09:00.389Z,99290.37
2019-03-30T02:11:11.217Z,99295.43
2019-03-30T02:13:22.094Z,99294.76
2019-03-30T02:15:32.950Z,99290.97
2019-03-30T02:17:43.828Z,99285.74
2019-03-30T02:19:54.685Z,99289.50
2019-03-30T02:22:05.521Z,99289.88
2019-03-30T02:24:16.375Z,99288.55
2019-03-30T02:26:27.416Z,99283.50
2019-03-30T02:28:38.273Z,99287.15
2019-03-30T02:30:49.124Z,99287.27
2019-03-30T02:33:00.198Z,99289.11
2019-03-30T02:35:11.110Z,99290.06
2019-03-30T02:37:22.058Z,99287.59
2019-03-30T02:39:32.898Z,99290.45
2019-03-30T02:41:43.883Z,99292.02
2019-03-30T02:43:54.742Z,99284.23
2019-03-30T02:46:05.776Z,99288.11
2019-03-30T02:48:16.621Z,99282.56
2019-03-30T02:50:27.486Z,99281.21
2019-03-30T02:52:38.322Z,99288.59
2019-03-30T02:54:49.180Z,99292.86
2019-03-30T02:57:00.019Z,99277.95
2019-03-30T02:59:10.909Z,99281.47
2019-03-30T03:01:21.767Z,99281.47
2019-03-30T03:03:32.609Z,99279.23
2019-03-30T03:05:43.572Z,99278.34
2019-03-30T03:07:54.406Z,99278.58
2019-03-30T03:10:07.663Z,99279.70
2019-03-30T03:12:18.512Z,99280.98
2019-03-30T03:14:29.464Z,99276.73
2019-03-30T03:16:40.337Z,99276.01
2019-03-30T03:18:51.161Z,99273.59
2019-03-30T03:21:07.996Z,99267.72
2019-03-30T03:23:14.914Z,99272.97
2019-03-30T03:25:25.786Z,99270.50
2019-03-30T03:27:36.725Z,99268.81
2019-03-30T03:29:47.569Z,99271.34
2019-03-30T03:31:58.422Z,99265.31
2019-03-30T03:34:09.503Z,99266.94
2019-03-30T03:36:20.354Z,99269.50
2019-03-30T03:38:31.197Z,99273.03
2019-03-30T03:40:42.051Z,99270.05
2019-03-30T03:42:52.889Z,99262.72
2019-03-30T03:45:06.140Z,99264.06
2019-03-30T03:47:17.006Z,99269.11
2019-03-30T03:49:27.846Z,99261.80
2019-03-30T03:51:39.198Z,99258.43
2019-03-30T03:53:50.241Z,99266.59
2019-03-30T03:56:03.053Z,99256.73
2019-03-30T03:58:14.277Z,99259.58
2019-03-30T04:00:25.723Z,99261.70
2019-03-30T04:02:36.845Z,99266.66
2019-03-30T04:04:48.590Z,99265.08
2019-03-30T04:07:00.072Z,99261.76
2019-03-30T04:09:12.115Z,99260.38
2019-03-30T04:11:23.092Z,99260.72
2019-03-30T04:13:33.904Z,99262.45
2019-03-30T04:15:44.867Z,99264.91
2019-03-30T04:17:55.712Z,99260.51
2019-03-30T04:20:06.656Z,99258.73
2019-03-30T04:22:17.510Z,99260.81
2019-03-30T04:24:28.346Z,99255.55
2019-03-30T04:26:39.332Z,99252.38
2019-03-30T04:28:50.409Z,99258.81
2019-03-30T04:31:01.205Z,99256.63
2019-03-30T04:33:12.065Z,99254.07
2019-03-30T04:35:22.913Z,99249.41
2019-03-30T04:37:33.781Z,99254.07
2019-03-30T04:39:44.622Z,99253.22
2019-03-30T04:41:55.478Z,99249.75
2019-03-30T04:44:06.324Z,99252.38
2019-03-30T04:46:17.168Z,99247.30
2019-03-30T04:48:29.647Z,99247.78
2019-03-30T04:50:40.710Z,99249.63
2019-03-30T04:52:51.561Z,99248.89
2019-03-30T04:55:04.508Z,99249.83
2019-03-30T04:57:15.492Z,99247.80
2019-03-30T04:59:26.368Z,99249.14
2019-03-30T05:01:37.221Z,99254.20
2019-03-30T05:03:48.080Z,99254.28
2019-03-30T05:05:59.008Z,99253.00
2019-03-30T05:08:09.970Z,99254.78
2019-03-30T05:10:20.815Z,99261.20
2019-03-30T05:12:31.637Z,99257.34
2019-03-30T05:14:42.513Z,99263.38
2019-03-30T05:16:53.383Z,99258.98
2019-03-30T05:19:06.138Z,99259.34
2019-03-30T05:21:17.143Z,99258.34
2019-03-30T05:23:27.973Z,99263.28
2019-03-30T05:25:38.846Z,99260.22
2019-03-30T05:27:49.675Z,99262.59
2019-03-30T05:30:00.602Z,99261.80
2019-03-30T05:32:11.446Z,99256.59
2019-03-30T05:34:22.297Z,99263.02
2019-03-30T05:36:33.158Z,99261.89
2019-03-30T05:38:44.017Z,99264.66
2019-03-30T05:40:54.866Z,99265.43
2019-03-30T05:43:05.778Z,99254.78
2019-03-30T05:45:16.671Z,99265.20
2019-03-30T05:47:27.511Z,99257.79
2019-03-30T05:49:38.369Z,99259.20
2019-03-30T05:51:49.254Z,99256.38
2019-03-30T05:54:00.224Z,99259.34
2019-03-30T05:56:11.181Z,99251.50
2019-03-30T05:58:22.020Z,99253.77
2019-03-30T06:00:32.995Z,99258.81
2019-03-30T06:02:43.860Z,99257.08
2019-03-30T06:04:54.947Z,99261.23
2019-03-30T06:07:05.774Z,99260.11
2019-03-30T06:09:16.646Z,99254.50
2019-03-30T06:11:27.490Z,99255.91
2019-03-30T06:13:38.331Z,99252.66
2019-03-30T06:15:49.200Z,99248.61
2019-03-30T06:18:00.052Z,99254.53
2019-03-30T06:20:11.104Z,99252.84
2019-03-30T06:22:21.953Z,99253.77
2019-03-30T06:24:32.912Z,99252.34
2019-03-30T06:26:43.760Z,99255.09
2019-03-30T06:28:54.605Z,99256.20
2019-03-30T06:31:05.578Z,99248.22
2019-03-30T06:33:16.502Z,99247.37
2019-03-30T06:35:27.374Z,99250.85
2019-03-30T06:37:38.238Z,99247.16
2019-03-30T06:39:49.076Z,99243.75
2019-03-30T06:42:00.054Z,99243.80
2019-03-30T06:44:11.005Z,99242.55
2019-03-30T06:46:23.803Z,99241.55
2019-03-30T06:48:36.251Z,99238.77
2019-03-30T06:50:47.304Z,99237.86
2019-03-30T06:52:58.890Z,99237.27
2019-03-30T06:55:10.105Z,99239.70
2019-03-30T06:57:20.954Z,99233.92
2019-03-30T06:59:31.800Z,99235.44
2019-03-30T07:01:42.911Z,99239.83
2019-03-30T07:03:53.961Z,99229.56
2019-03-30T07:06:05.339Z,99238.81
2019-03-30T07:08:16.277Z,99231.92
2019-03-30T07:10:27.231Z,99227.82
2019-03-30T07:12:38.884Z,99237.17
2019-03-30T07:14:52.038Z,99231.29
2019-03-30T07:17:03.103Z,99231.41
2019-03-30T07:19:13.963Z,99230.61
2019-03-30T07:21:24.798Z,99228.80
2019-03-30T07:23:35.659Z,99231.62
2019-03-30T07:25:46.526Z,99227.02
2019-03-30T07:27:57.530Z,99230.23
2019-03-30T07:30:09.186Z,99231.55
2019-03-30T07:32:20.213Z,99220.23
2019-03-30T07:34:31.080Z,99220.92
2019-03-30T07:36:42.032Z,99225.95
2019-03-30T07:38:52.886Z,99219.58
2019-03-30T07:41:03.923Z,99217.78
2019-03-30T07:43:14.917Z,99220.27
2019-03-30T07:45:25.771Z,99223.30
2019-03-30T07:47:36.582Z,99217.87
2019-03-30T07:49:47.477Z,99214.86
2019-03-30T07:51:58.325Z,99220.62
2019-03-30T07:54:09.198Z,99220.02
2019-03-30T07:56:20.140Z,99211.42
2019-03-30T07:58:31.005Z,99219.97
2019-03-30T08:00:41.958Z,99214.75
2019-03-30T08:02:52.848Z,99212.73
2019-03-30T08:05:05.499Z,99221.69
2019-03-30T08:07:16.378Z,99221.11
2019-03-30T08:09:27.397Z,99219.78
2019-03-30T08:11:38.376Z,99218.94
2019-03-30T08:13:49.244Z,99212.01
2019-03-30T08:16:00.318Z,99210.46
2019-03-30T08:18:11.150Z,99217.51
2019-03-30T08:20:22.026Z,99210.33
2019-03-30T08:22:32.975Z,99209.83
2019-03-30T08:24:43.849Z,99214.37
2019-03-30T08:26:54.816Z,99215.58
2019-03-30T08:29:05.661Z,99214.52
2019-03-30T08:31:16.540Z,99214.39
2019-03-30T08:33:29.353Z,99216.08
2019-03-30T08:35:40.211Z,99218.81
2019-03-30T08:37:52.972Z,99213.08
2019-03-30T08:40:04.276Z,99218.11
2019-03-30T08:42:15.220Z,99218.11
2019-03-30T08:44:26.076Z,99212.96
2019-03-30T08:46:36.968Z,99207.31
2019-03-30T08:48:47.810Z,99209.70
2019-03-30T08:50:58.753Z,99206.96
2019-03-30T08:53:09.628Z,99209.53
2019-03-30T08:55:20.558Z,99206.70
2019-03-30T08:57:31.410Z,99198.73
2019-03-30T08:59:42.251Z,99202.86
2019-03-30T09:01:53.246Z,99199.92
2019-03-30T09:04:04.201Z,99200.94
2019-03-30T09:06:15.195Z,99198.28
2019-03-30T09:08:26.106Z,99196.10
2019-03-30T09:10:37.069Z,99194.19
2019-03-30T09:12:47.902Z,99197.48
2019-03-30T09:14:58.752Z,99198.94
2019-03-30T09:17:09.825Z,99193.00
2019-03-30T09:19:20.670Z,99191.94
2019-03-30T09:21:31.645Z,99187.48
2019-03-30T09:23:42.490Z,99183.70
2019-03-30T09:25:53.354Z,99187.89
2019-03-30T09:28:04.218Z,99183.44
2019-03-30T09:30:15.457Z,99179.77
2019-03-30T09:32:26.814Z,99183.58
2019-03-30T09:34:37.658Z,99177.08
2019-03-30T09:36:48.858Z,99171.76
2019-03-30T09:38:59.988Z,99170.68
2019-03-30T09:41:10.947Z,99170.16
2019-03-30T09:43:21.833Z,99165.58
2019-03-30T09:45:32.678Z,99163.96
2019-03-30T09:47:43.665Z,99166.41
2019-03-30T09:49:54.525Z,99161.44
2019-03-30T09:52:05.489Z,99162.87
2019-03-30T09:54:23.479Z,99165.28
2019-03-30T09:56:29.301Z,99163.58
2019-03-30T09:58:40.301Z,99160.86
2019-03-30T10:00:51.175Z,99159.91
2019-03-30T10:03:05.778Z,99150.18
2019-03-30T10:05:15.007Z,99150.18
2019-03-30T10:07:25.908Z,99149.56
2019-03-30T10:09:37.593Z,99145.20
2019-03-30T10:11:48.423Z,99137.75
2019-03-30T10:13:59.309Z,99131.19
2019-03-30T10:16:10.472Z,99127.70
2019-03-30T10:18:21.354Z,99132.39
2019-03-30T10:20:32.216Z,99129.73
2019-03-30T10:22:43.197Z,99129.73
2019-03-30T10:24:54.167Z,99125.43
2019-03-30T10:27:05.011Z,99123.34
2019-03-30T10:29:15.994Z,99122.09
2019-03-30T10:31:26.856Z,99123.12
2019-03-30T10:33:37.721Z,99121.73
2019-03-30T10:35:48.576Z,99118.17
2019-03-30T10:37:59.528Z,99116.67
2019-03-30T10:40:10.610Z,99114.14
2019-03-30T10:42:23.484Z,99115.19
2019-03-30T10:44:34.357Z,99110.45
2019-03-30T10:46:45.213Z,99107.53
2019-03-30T10:48:56.085Z,99110.61
2019-03-30T10:51:06.918Z,99104.55
2019-03-30T10:53:17.815Z,99103.87
2019-03-30T10:55:28.688Z,99103.72
2019-03-30T10:57:39.525Z,99106.23
2019-03-30T10:59:50.492Z,99098.14
2019-03-30T11:02:01.563Z,99100.67
2019-03-30T11:04:12.427Z,99092.92
2019-03-30T11:06:23.269Z,99090.22
2019-03-30T11:08:34.219Z,99091.60
2019-03-30T11:10:45.096Z,99088.31
2019-03-30T11:12:55.990Z,99087.63
2019-03-30T11:15:07.166Z,99080.25
2019-03-30T11:17:19.463Z,99080.25
2019-03-30T11:19:30.481Z,99079.69
2019-03-30T11:21:42.206Z,99082.70
2019-03-30T11:23:53.118Z,99080.95
2019-03-30T11:26:04.472Z,99076.03
2019-03-30T11:28:15.331Z,99066.41
2019-03-30T11:30:26.227Z,99067.16
2019-03-30T11:32:37.166Z,99064.95
2019-03-30T11:34:48.029Z,99063.28
2019-03-30T11:36:58.891Z,99059.17
2019-03-30T11:39:09.831Z,99052.92
2019-03-30T11:41:20.854Z,99049.70
2019-03-30T11:43:31.779Z,99046.50
2019-03-30T11:45:42.658Z,99039.84
2019-03-30T11:47:53.485Z,99040.27
2019-03-30T11:50:05.420Z,99038.56
2019-03-30T11:52:16.288Z,99038.06
2019-03-30T11:54:27.145Z,99029.52
2019-03-30T11:56:38.040Z,99028.69
2019-03-30T11:58:48.868Z,99017.89
2019-03-30T12:01:00.048Z,99026.44
2019-03-30T12:03:10.904Z,99023.75
2019-03-30T12:05:21.756Z,99019.39
2019-03-30T12:07:32.607Z,99013.89
2019-03-30T12:09:43.478Z,99013.60
2019-03-30T12:11:54.346Z,99007.75
2019-03-30T12:14:05.208Z,99011.17
2019-03-30T12:16:16.112Z,99000.61
2019-03-30T12:18:27.058Z,99002.74
2019-03-30T12:20:37.907Z,99008.70
2019-03-30T12:22:48.897Z,98999.22
2019-03-30T12:24:59.776Z,98995.25
2019-03-30T12:27:10.729Z,98991.95
2019-03-30T12:29:21.625Z,98991.30
2019-03-30T12:31:32.461Z,98987.23
2019-03-30T12:33:43.348Z,98987.44
2019-03-30T12:35:54.188Z,98981.78
2019-03-30T12:38:07.052Z,98982.55
2019-03-30T12:40:17.998Z,98976.84
2019-03-30T12:42:28.871Z,98977.43
2019-03-30T12:44:39.738Z,98977.00
2019-03-30T12:46:50.582Z,98974.02
2019-03-30T12:49:01.496Z,98969.45
2019-03-30T12:51:12.343Z,98968.40
2019-03-30T12:53:23.221Z,98968.11
2019-03-30T12:55:34.165Z,98962.33
2019-03-30T12:57:45.174Z,98961.75
2019-03-30T12:59:59.160Z,98961.87
2019-03-30T13:02:08.886Z,98951.44
2019-03-30T13:04:19.772Z,98944.34
2019-03-30T13:06:30.641Z,98946.86
2019-03-30T13:08:41.488Z,98944.15
2019-03-30T13:10:52.335Z,98941.05
2019-03-30T13:13:03.274Z,98934.46
2019-03-30T13:15:14.344Z,98941.33
2019-03-30T13:17:25.287Z,98937.77
2019-03-30T13:19:36.266Z,98936.38
2019-03-30T13:21:52.751Z,98931.38
2019-03-30T13:24:00.465Z,98924.51
2019-03-30T13:26:11.404Z,98925.67
2019-03-30T13:28:22.262Z,98922.28
2019-03-30T13:30:33.227Z,98921.33
2019-03-30T13:32:44.086Z,98914.02
2019-03-30T13:34:54.975Z,98917.15
2019-03-30T13:37:14.095Z,98913.17
2019-03-30T13:39:24.942Z,98915.05
2019-03-30T13:41:36.012Z,98908.05
2019-03-30T13:43:46.853Z,98905.48
2019-03-30T13:45:57.923Z,98906.80
2019-03-30T13:48:10.660Z,98900.95
2019-03-30T13:50:21.539Z,98898.88
2019-03-30T13:52:32.459Z,98892.62
2019-03-30T13:54:43.323Z,98897.98
2019-03-30T13:56:54.165Z,98892.41
2019-03-30T13:59:05.035Z,98891.02
2019-03-30T14:01:16.016Z,98889.21
2019-03-30T14:03:26.892Z,98891.02
2019-03-30T14:05:37.754Z,98887.45
2019-03-30T14:07:48.693Z,98883.23
2019-03-30T14:09:59.796Z,98879.98
2019-03-30T14:12:10.753Z,98875.27
2019-03-30T14:14:21.602Z,98874.28
2019-03-30T14:16:32.503Z,98867.69
2019-03-30T14:18:43.339Z,98868.03
2019-03-30T14:20:54.211Z,98866.59
2019-03-30T14:23:05.071Z,98864.44
2019-03-30T14:25:15.948Z,98864.78
2019-03-30T14:27:26.829Z,98862.29
2019-03-30T14:29:37.681Z,98853.89
2019-03-30T14:31:48.575Z,98852.08
2019-03-30T14:33:59.473Z,98846.78
2019-03-30T14:36:10.332Z,98842.83
2019-03-30T14:38:21.185Z,98840.24
2019-03-30T14:40:32.038Z,98839.38
2019-03-30T14:42:43.015Z,98833.27
2019-03-30T14:44:53.980Z,98837.05
2019-03-30T14:47:04.833Z,98837.05
2019-03-30T14:49:15.769Z,98826.49
2019-03-30T14:51:26.624Z,98826.95
2019-03-30T14:53:37.489Z,98823.20
2019-03-30T14:55:48.415Z,98818.78
2019-03-30T14:57:59.308Z,98818.07
2019-03-30T15:00:10.633Z,98816.60
2019-03-30T15:02:21.616Z,98811.33
2019-03-30T15:04:32.484Z,98810.77
2019-03-30T15:06:43.344Z,98808.02
2019-03-30T15:08:54.187Z,98803.98
2019-03-30T15:11:05.057Z,98809.75
2019-03-30T15:13:15.927Z,98803.36
2019-03-30T15:15:26.768Z,98802.04
2019-03-30T15:17:40.649Z,98800.98
2019-03-30T15:19:50.585Z,98803.33
2019-03-30T15:22:01.436Z,98804.16
2019-03-30T15:24:12.289Z,98801.81
2019-03-30T15:26:23.237Z,98797.22
2019-03-30T15:28:34.121Z,98797.22
2019-03-30T15:30:44.969Z,98794.47
2019-03-30T15:32:55.940Z,98785.23
2019-03-30T15:35:06.904Z,98785.22
2019-03-30T15:37:17.743Z,98780.45
2019-03-30T15:39:28.617Z,98783.44
2019-03-30T15:41:39.564Z,98780.80
2019-03-30T15:43:52.176Z,98774.55
2019-03-30T15:46:03.301Z,98778.87
2019-03-30T15:48:14.168Z,98775.57
2019-03-30T15:50:24.999Z,98769.95
2019-03-30T15:52:35.871Z,98774.81
2019-03-30T15:54:46.849Z,98773.71
2019-03-30T15:56:57.957Z,98771.23
2019-03-30T15:59:08.897Z,98771.14
2019-03-30T16:01:20.007Z,98770.88
2019-03-30T16:03:30.972Z,98762.45
2019-03-30T16:05:42.222Z,98766.06
2019-03-30T16:07:53.181Z,98763.98
2019-03-30T16:10:05.159Z,98769.67
2019-03-30T16:12:16.116Z,98767.23
2019-03-30T16:14:26.955Z,98758.09
2019-03-30T16:16:37.933Z,98767.47
2019-03-30T16:18:48.799Z,98766.83
2019-03-30T16:20:59.757Z,98763.44
2019-03-30T16:23:12.721Z,98764.65
2019-03-30T16:25:23.696Z,98759.79
2019-03-30T16:27:34.547Z,98766.03
2019-03-30T16:29:45.495Z,98759.56
2019-03-30T16:31:56.421Z,98762.83
2019-03-30T16:34:07.209Z,98758.23
2019-03-30T16:36:18.215Z,98758.87
2019-03-30T16:38:29.232Z,98758.44
2019-03-30T16:40:40.228Z,98758.13
2019-03-30T16:42:51.054Z,98760.67
2019-03-30T16:45:03.383Z,98755.07
2019-03-30T16:47:14.366Z,98754.41
2019-03-30T16:49:25.285Z,98749.03
2019-03-30T16:51:36.157Z,98748.11
2019-03-30T16:53:47.487Z,98750.17
2019-03-30T16:55:58.498Z,98748.53
2019-03-30T16:58:09.366Z,98748.10
2019-03-30T17:00:20.315Z,98747.78
2019-03-30T17:02:31.205Z,98747.20
2019-03-30T17:04:42.047Z,98748.63
2019-03-30T17:06:52.918Z,98745.58
2019-03-30T17:09:04.764Z,98744.25
2019-03-30T17:11:15.740Z,98745.23
2019-03-30T17:13:26.621Z,98745.66
2019-03-30T17:15:37.484Z,98747.09
2019-03-30T17:17:48.371Z,98746.08
2019-03-30T17:19:59.214Z,98749.80
2019-03-30T17:22:10.081Z,98746.02
2019-03-30T17:24:21.044Z,98749.65
2019-03-30T17:26:31.892Z,98744.27
2019-03-30T17:28:42.763Z,98748.59
2019-03-30T17:30:53.633Z,98746.83
2019-03-30T17:33:04.690Z,98743.62
2019-03-30T17:35:15.651Z,98742.20
2019-03-30T17:37:26.652Z,98752.72
2019-03-30T17:39:37.505Z,98751.58
2019-03-30T17:41:48.403Z,98750.49
2019-03-30T17:43:59.270Z,98749.19
2019-03-30T17:46:10.113Z,98746.11
2019-03-30T17:48:22.975Z,98752.18
2019-03-30T17:50:33.930Z,98754.55
2019-03-30T17:52:44.968Z,98746.06
2019-03-30T17:54:55.789Z,98752.25
2019-03-30T17:57:06.725Z,98751.94
2019-03-30T17:59:19.508Z,98755.14
2019-03-30T18:01:30.542Z,98758.44
2019-03-30T18:03:41.468Z,98757.57
2019-03-30T18:05:52.303Z,98755.87
2019-03-30T18:08:03.277Z,98761.77
2019-03-30T18:10:14.433Z,98761.14
2019-03-30T18:12:25.380Z,98763.32
2019-03-30T18:14:36.265Z,98768.77
2019-03-30T18:16:47.112Z,98767.17
2019-03-30T18:18:57.998Z,98768.55
2019-03-30T18:21:08.865Z,98772.67
2019-03-30T18:23:19.710Z,98772.18
2019-03-30T18:25:30.574Z,98773.67
2019-03-30T18:27:41.411Z,98779.31
2019-03-30T18:29:52.265Z,98781.72
2019-03-30T18:32:03.335Z,98781.61
2019-03-30T18:34:14.531Z,98785.98
2019-03-30T18:36:25.469Z,98792.72
2019-03-30T18:38:37.563Z,98786.34
2019-03-30T18:40:48.502Z,98795.58
2019-03-30T18:43:01.151Z,98790.89
2019-03-30T18:45:15.845Z,98801.06
2019-03-30T18:47:26.887Z,98808.29
2019-03-30T18:49:37.771Z,98809.61
2019-03-30T18:51:48.772Z,98806.89
2019-03-30T18:53:59.870Z,98814.08
2019-03-30T18:56:10.702Z,98808.58
2019-03-30T18:58:21.674Z,98809.16
2019-03-30T19:00:32.644Z,98811.50
2019-03-30T19:02:45.401Z,98819.16
2019-03-30T19:04:56.280Z,98825.03
2019-03-30T19:07:07.151Z,98824.55
2019-03-30T19:09:18.008Z,98828.05
2019-03-30T19:11:28.926Z,98824.76
2019-03-30T19:13:39.757Z,98828.01
2019-03-30T19:15:50.999Z,98826.22
2019-03-30T19:18:01.865Z,98832.14
2019-03-30T19:20:12.842Z,98824.41
2019-03-30T19:22:23.822Z,98830.62
2019-03-30T19:24:34.673Z,98831.09
2019-03-30T19:26:45.567Z,98832.17
2019-03-30T19:28:56.971Z,98830.27
2019-03-30T19:31:07.900Z,98827.67
2019-03-30T19:33:18.760Z,98834.33
2019-03-30T19:35:29.653Z,98827.14
2019-03-30T19:37:40.509Z,98837.73
2019-03-30T19:39:51.377Z,98832.91
2019-03-30T19:42:02.829Z,98836.25
2019-03-30T19:44:15.564Z,98838.44
2019-03-30T19:46:26.916Z,98838.04
2019-03-30T19:48:37.797Z,98831.53
2019-03-30T19:50:48.664Z,98828.69
2019-03-30T19:52:59.542Z,98828.69
2019-03-30T19:55:10.514Z,98839.14
2019-03-30T19:57:21.411Z,98835.73
2019-03-30T19:59:32.246Z,98829.92
2019-03-30T20:01:43.139Z,98834.75
2019-03-30T20:03:54.183Z,98841.29
2019-03-30T20:06:04.998Z,98838.02
2019-03-30T20:08:16.078Z,98839.87
2019-03-30T20:10:27.014Z,98841.66
2019-03-30T20:12:37.888Z,98841.04
2019-03-30T20:14:48.855Z,98836.73
2019-03-30T20:16:59.751Z,98837.51
2019-03-30T20:19:12.755Z,98839.67
2019-03-30T20:21:23.484Z,98840.36
2019-03-30T20:23:34.414Z,98839.89
2019-03-30T20:25:45.253Z,98838.66
2019-03-30T20:27:56.141Z,98837.08
2019-03-30T20:30:08.384Z,98839.14
2019-03-30T20:32:19.250Z,98833.95
2019-03-30T20:34:30.127Z,98844.49
2019-03-30T20:36:41.100Z,98838.99
2019-03-30T20:38:51.975Z,98835.16
2019-03-30T20:41:02.912Z,98838.68
2019-03-30T20:43:13.879Z,98836.14
2019-03-30T20:45:24.716Z,98828.90
2019-03-30T20:47:35.712Z,98830.88
2019-03-30T20:49:46.589Z,98839.83
2019-03-30T20:51:57.482Z,98832.04
2019-03-30T20:54:08.456Z,98834.95
2019-03-30T20:56:19.306Z,98835.10
2019-03-30T20:58:30.364Z,98832.41
2019-03-30T21:00:41.314Z,98834.70
2019-03-30T21:02:52.185Z,98832.03
2019-03-30T21:05:04.753Z,98831.80
2019-03-30T21:07:15.628Z,98833.02
2019-03-30T21:09:26.593Z,98838.68
2019-03-30T21:11:37.428Z,98829.05
2019-03-30T21:13:48.422Z,98834.86
2019-03-30T21:15:59.321Z,98836.62
2019-03-30T21:18:10.249Z,98833.77
2019-03-30T21:20:23.126Z,98833.16
2019-03-30T21:22:34.225Z,98832.38
2019-03-30T21:24:45.211Z,98834.31
2019-03-30T21:26:56.061Z,98832.61
2019-03-30T21:29:07.026Z,98836.88
2019-03-30T21:31:17.882Z,98838.55
2019-03-30T21:33:28.735Z,98836.03
2019-03-30T21:35:39.621Z,98831.83
2019-03-30T21:37:50.596Z,98832.80
2019-03-30T21:40:02.280Z,98835.39
2019-03-30T21:42:13.150Z,98834.05
2019-03-30T21:44:23.996Z,98832.48
2019-03-30T21:46:35.080Z,98836.88
2019-03-30T21:48:46.030Z,98835.09
2019-03-30T21:50:57.031Z,98834.94
2019-03-30T21:53:07.872Z,98830.27
2019-03-30T21:55:18.725Z,98836.98
2019-03-30T21:57:29.605Z,98832.34
2019-03-30T21:59:40.566Z,98828.30
2019-03-30T22:01:53.336Z,98831.86
2019-03-30T22:04:04.310Z,98825.70
2019-03-30T22:06:15.396Z,98832.12
2019-03-30T22:08:26.465Z,98827.67
2019-03-30T22:10:37.324Z,98830.45
2019-03-30T22:12:48.306Z,98828.39
2019-03-30T22:14:59.162Z,98833.25
2019-03-30T22:17:10.125Z,98832.22
2019-03-30T22:19:21.083Z,98832.17
2019-03-30T22:21:31.957Z,98831.25
2019-03-30T22:23:42.913Z,98827.74
2019-03-30T22:25:53.748Z,98825.48
2019-03-30T22:28:04.631Z,98819.33
2019-03-30T22:30:24.575Z,98820.63
2019-03-30T22:32:28.514Z,98826.28
2019-03-30T22:34:39.373Z,98828.63
2019-03-30T22:36:50.263Z,98824.41
2019-03-30T22:39:01.127Z,98821.16
2019-03-30T22:41:11.962Z,98812.52
2019-03-30T22:43:23.097Z,98812.73
2019-03-30T22:45:34.042Z,98815.19
2019-03-30T22:47:44.918Z,98820.50
2019-03-30T22:49:55.760Z,98820.58
2019-03-30T22:52:06.623Z,98819.70
2019-03-30T22:54:17.582Z,98817.98
2019-03-30T22:56:28.451Z,98822.00
2019-03-30T22:58:39.448Z,98813.90
2019-03-30T23:00:59.013Z,98817.20
2019-03-30T23:03:10.956Z,98813.44
2019-03-30T23:05:21.941Z,98812.78
2019-03-30T23:07:34.742Z,98818.50
2019-03-30T23:09:45.619Z,98821.28
2019-03-30T23:11:56.453Z,98815.97
2019-03-30T23:14:07.423Z,98816.14
2019-03-30T23:16:18.361Z,98817.63
2019-03-30T23:18:29.308Z,98820.22
2019-03-30T23:20:40.150Z,98822.80
2019-03-30T23:22:51.003Z,98816.91
2019-03-30T23:25:03.260Z,98823.45
2019-03-30T23:27:14.114Z,98822.09
2019-03-30T23:29:24.973Z,98820.94
2019-03-30T23:31:35.805Z,98821.72
2019-03-30T23:33:46.667Z,98820.98
2019-03-30T23:35:57.631Z,98814.02
2019-03-30T23:38:08.708Z,98813.20
2019-03-30T23:40:19.665Z,98820.50
2019-03-30T23:42:30.503Z,98821.22
2019-03-30T23:44:41.357Z,98814.91
2019-03-30T23:46:52.299Z,98816.55
2019-03-30T23:49:03.265Z,98821.80
2019-03-30T23:51:14.126Z,98820.39
2019-03-30T23:53:25.010Z,98814.34
2019-03-30T23:55:35.886Z,98816.36
2019-03-30T23:57:46.739Z,98821.83
2019-03-30T23:59:57.603Z,98814.64
